Погода Колодана неделю

Могилёвская область, Белоруссия

23 - 29 мая
  • 23мая
    Сегодня
    +10°
    +24°
    Практически безоблачно
    ВремяПогодаТемператураВлажностьДавлениеВетер, м/сВероятность осадков
    00:00Практически безоблачно+15°C89 %751 мм3.3 м/с2 %
    03:00Ясно и безоблачно+14°C96 %752 мм3.0 м/с2 %
    06:00Ясно и безоблачно+14°C95 %752 мм3.8 м/с2 %
    09:00Ясно и безоблачно+19°C75 %753 мм4.1 м/с2 %
    12:00Практически безоблачно+23°C61 %754 мм5.1 м/с5 %
    15:00Практически безоблачно+24°C51 %754 мм5.5 м/с6 %
    18:00Ясно и безоблачно+23°C46 %754 мм6.0 м/с3 %
    21:00Ясно и безоблачно+19°C53 %755 мм5.2 м/с2 %
  • 24мая
    Пятница
    +9°
    +22°
    Ясно и безоблачно
    ВремяПогодаТемператураВлажностьДавлениеВетер, м/сВероятность осадков
    00:00Ясно и безоблачно+15°C56 %756 мм5.2 м/с2 %
    03:00Ясно и безоблачно+12°C56 %757 мм5.1 м/с2 %
    06:00Ясно и безоблачно+11°C57 %757 мм4.6 м/с2 %
    09:00Ясно и безоблачно+15°C51 %758 мм4.9 м/с2 %
    12:00Ясно и безоблачно+20°C44 %758 мм4.9 м/с2 %
    15:00Ясно и безоблачно+21°C40 %758 мм5.1 м/с2 %
    18:00Ясно и безоблачно+21°C40 %757 мм4.6 м/с2 %
    21:00Ясно и безоблачно+16°C54 %757 мм3.5 м/с2 %
  • 25мая
    Суббота
    +9°
    +23°
    Ясно и безоблачно
    ВремяПогодаТемператураВлажностьДавлениеВетер, м/сВероятность осадков
    00:00Ясно и безоблачно+12°C59 %758 мм3.6 м/с2 %
    03:00Ясно и безоблачно+11°C63 %758 мм3.6 м/с2 %
    06:00Ясно и безоблачно+10°C59 %758 мм3.5 м/с2 %
    09:00Ясно и безоблачно+16°C49 %758 мм2.9 м/с2 %
    12:00Ясно и безоблачно+22°C36 %758 мм3.3 м/с2 %
    15:00Ясно и безоблачно+23°C33 %757 мм3.1 м/с2 %
    18:00Ясно и безоблачно+23°C34 %756 мм2.9 м/с2 %
    21:00Ясно и безоблачно+17°C62 %755 мм2.4 м/с2 %
  • 26мая
    Воскресенье
    +11°
    +24°
    Ясно и безоблачно
    ВремяПогодаТемператураВлажностьДавлениеВетер, м/сВероятность осадков
    00:00Небольшая облачность+12°C74 %755 мм2.7 м/с2 %
    03:00Облачно с прояснениями+11°C79 %755 мм2.4 м/с2 %
    06:00Облачно с прояснениями+11°C80 %755 мм1.4 м/с2 %
    09:00Облачно с прояснениями+18°C58 %756 мм1.1 м/с2 %
    12:00Небольшая облачность+22°C38 %756 мм1.5 м/с2 %
    15:00Ясно и безоблачно+23°C35 %755 мм1.9 м/с2 %
    18:00Ясно и безоблачно+23°C39 %754 мм2.5 м/с2 %
    21:00Ясно и безоблачно+19°C61 %754 мм2.0 м/с2 %
  • 27мая
    Понедельник
    +13°
    +26°
    Небольшая облачность
    ВремяПогодаТемператураВлажностьДавлениеВетер, м/сВероятность осадков
    00:00Практически безоблачно+15°C69 %754 мм2.3 м/с2 %
    03:00Ясно и безоблачно+12°C83 %754 мм2.2 м/с2 %
    06:00Практически безоблачно+14°C78 %755 мм2.1 м/с2 %
    09:00Ясно и безоблачно+19°C66 %755 мм2.0 м/с2 %
    12:00Ясно и безоблачно+24°C49 %755 мм2.3 м/с7 %
    15:00Небольшая облачность+26°C44 %755 мм2.4 м/с16 %
    18:00Практически безоблачно+25°C47 %755 мм2.7 м/с20 %
    21:00Практически безоблачно+20°C67 %755 мм2.9 м/с9 %
Мы используем cookies
Соглашаюсь